sensor_id;sensor_type;location;lat;lon;timestamp;P1;durP1;ratioP1;P2;durP2;ratioP2
51080;SDS011;37130;55.670;37.596;2023-07-20T00:02:20;0.00;;;0.00;;
51080;SDS011;37130;55.670;37.596;2023-07-20T00:04:48;0.00;;;0.00;;
51080;SDS011;37130;55.670;37.596;2023-07-20T00:07:16;0.00;;;0.00;;
51080;SDS011;37130;55.670;37.596;2023-07-20T00:09:43;0.00;;;0.00;;
51080;SDS011;37130;55.670;37.596;2023-07-20T00:12:11;0.00;;;0.00;;
51080;SDS011;37130;55.670;37.596;2023-07-20T00:14:39;0.00;;;0.00;;
51080;SDS011;37130;55.670;37.596;2023-07-20T00:17:06;0.00;;;0.00;;
51080;SDS011;37130;55.670;37.596;2023-07-20T00:19:33;0.00;;;0.00;;
51080;SDS011;37130;55.670;37.596;2023-07-20T00:22:01;0.00;;;0.00;;
51080;SDS011;37130;55.670;37.596;2023-07-20T00:24:31;0.00;;;0.00;;
51080;SDS011;37130;55.670;37.596;2023-07-20T00:26:59;0.00;;;0.00;;
51080;SDS011;37130;55.670;37.596;2023-07-20T00:29:30;0.00;;;0.00;;
51080;SDS011;37130;55.670;37.596;2023-07-20T00:31:58;0.00;;;0.00;;
51080;SDS011;37130;55.670;37.596;2023-07-20T00:34:25;0.00;;;0.00;;
51080;SDS011;37130;55.670;37.596;2023-07-20T00:36:53;0.00;;;0.00;;
51080;SDS011;37130;55.670;37.596;2023-07-20T00:39:22;0.00;;;0.00;;
51080;SDS011;37130;55.670;37.596;2023-07-20T00:41:51;0.00;;;0.00;;
51080;SDS011;37130;55.670;37.596;2023-07-20T00:44:18;0.00;;;0.00;;
51080;SDS011;37130;55.670;37.596;2023-07-20T00:46:46;0.00;;;0.00;;
51080;SDS011;37130;55.670;37.596;2023-07-20T00:49:15;0.00;;;0.00;;
51080;SDS011;37130;55.670;37.596;2023-07-20T00:51:43;0.00;;;0.00;;
51080;SDS011;37130;55.670;37.596;2023-07-20T00:54:11;0.00;;;0.00;;
51080;SDS011;37130;55.670;37.596;2023-07-20T00:56:38;0.00;;;0.00;;
51080;SDS011;37130;55.670;37.596;2023-07-20T00:59:06;0.00;;;0.00;;
51080;SDS011;37130;55.670;37.596;2023-07-20T01:01:34;0.00;;;0.00;;
51080;SDS011;37130;55.670;37.596;2023-07-20T01:04:01;0.00;;;0.00;;
51080;SDS011;37130;55.670;37.596;2023-07-20T01:09:13;0.00;;;0.00;;
51080;SDS011;37130;55.670;37.596;2023-07-20T01:11:59;0.00;;;0.00;;
51080;SDS011;37130;55.670;37.596;2023-07-20T01:14:34;0.00;;;0.00;;
51080;SDS011;37130;55.670;37.596;2023-07-20T01:17:02;0.00;;;0.00;;
51080;SDS011;37130;55.670;37.596;2023-07-20T01:19:30;0.00;;;0.00;;
51080;SDS011;37130;55.670;37.596;2023-07-20T01:33:02;0.00;;;0.00;;
51080;SDS011;37130;55.670;37.596;2023-07-20T01:35:30;0.00;;;0.00;;
51080;SDS011;37130;55.670;37.596;2023-07-20T01:37:59;0.00;;;0.00;;
51080;SDS011;37130;55.670;37.596;2023-07-20T01:40:28;0.00;;;0.00;;
51080;SDS011;37130;55.670;37.596;2023-07-20T01:42:56;0.00;;;0.00;;
51080;SDS011;37130;55.670;37.596;2023-07-20T01:45:24;0.00;;;0.00;;
51080;SDS011;37130;55.670;37.596;2023-07-20T01:47:52;0.00;;;0.00;;
51080;SDS011;37130;55.670;37.596;2023-07-20T01:50:20;0.00;;;0.00;;
51080;SDS011;37130;55.670;37.596;2023-07-20T01:52:47;0.00;;;0.00;;
51080;SDS011;37130;55.670;37.596;2023-07-20T01:55:15;0.00;;;0.00;;
51080;SDS011;37130;55.670;37.596;2023-07-20T01:57:43;0.00;;;0.00;;
51080;SDS011;37130;55.670;37.596;2023-07-20T02:00:10;0.00;;;0.00;;
51080;SDS011;37130;55.670;37.596;2023-07-20T02:02:42;0.00;;;0.00;;
51080;SDS011;37130;55.670;37.596;2023-07-20T02:05:10;0.00;;;0.00;;
51080;SDS011;37130;55.670;37.596;2023-07-20T02:07:37;0.00;;;0.00;;
51080;SDS011;37130;55.670;37.596;2023-07-20T02:10:05;0.00;;;0.00;;
51080;SDS011;37130;55.670;37.596;2023-07-20T02:12:35;0.00;;;0.00;;
51080;SDS011;37130;55.670;37.596;2023-07-20T02:15:03;0.00;;;0.00;;
51080;SDS011;37130;55.670;37.596;2023-07-20T02:17:32;0.00;;;0.00;;
51080;SDS011;37130;55.670;37.596;2023-07-20T02:20:20;0.00;;;0.00;;
51080;SDS011;37130;55.670;37.596;2023-07-20T02:22:47;0.00;;;0.00;;
51080;SDS011;37130;55.670;37.596;2023-07-20T02:25:18;0.00;;;0.00;;
51080;SDS011;37130;55.670;37.596;2023-07-20T02:27:46;0.00;;;0.00;;
51080;SDS011;37130;55.670;37.596;2023-07-20T02:30:14;0.00;;;0.00;;
51080;SDS011;37130;55.670;37.596;2023-07-20T02:32:43;0.00;;;0.00;;
51080;SDS011;37130;55.670;37.596;2023-07-20T02:35:16;0.00;;;0.00;;
51080;SDS011;37130;55.670;37.596;2023-07-20T02:37:44;0.00;;;0.00;;
51080;SDS011;37130;55.670;37.596;2023-07-20T02:40:11;0.00;;;0.00;;
51080;SDS011;37130;55.670;37.596;2023-07-20T02:42:39;0.00;;;0.00;;
51080;SDS011;37130;55.670;37.596;2023-07-20T02:45:07;0.00;;;0.00;;
51080;SDS011;37130;55.670;37.596;2023-07-20T02:47:35;0.00;;;0.00;;
51080;SDS011;37130;55.670;37.596;2023-07-20T02:50:05;0.00;;;0.00;;
51080;SDS011;37130;55.670;37.596;2023-07-20T02:52:33;0.00;;;0.00;;
51080;SDS011;37130;55.670;37.596;2023-07-20T02:55:01;0.00;;;0.00;;
51080;SDS011;37130;55.670;37.596;2023-07-20T02:57:29;0.00;;;0.00;;
51080;SDS011;37130;55.670;37.596;2023-07-20T02:59:57;0.10;;;0.10;;
51080;SDS011;37130;55.670;37.596;2023-07-20T03:02:25;0.10;;;0.10;;
51080;SDS011;37130;55.670;37.596;2023-07-20T03:04:53;0.00;;;0.00;;
51080;SDS011;37130;55.670;37.596;2023-07-20T03:07:21;0.10;;;0.10;;
51080;SDS011;37130;55.670;37.596;2023-07-20T03:09:48;0.10;;;0.10;;
51080;SDS011;37130;55.670;37.596;2023-07-20T03:12:16;0.10;;;0.10;;
51080;SDS011;37130;55.670;37.596;2023-07-20T03:14:44;0.10;;;0.10;;
51080;SDS011;37130;55.670;37.596;2023-07-20T03:17:12;0.10;;;0.10;;
51080;SDS011;37130;55.670;37.596;2023-07-20T03:19:39;0.17;;;0.17;;
51080;SDS011;37130;55.670;37.596;2023-07-20T03:22:07;0.20;;;0.20;;
51080;SDS011;37130;55.670;37.596;2023-07-20T03:24:34;0.20;;;0.20;;
51080;SDS011;37130;55.670;37.596;2023-07-20T03:27:03;0.20;;;0.20;;
51080;SDS011;37130;55.670;37.596;2023-07-20T03:29:31;0.20;;;0.20;;
51080;SDS011;37130;55.670;37.596;2023-07-20T03:32:00;0.20;;;0.20;;
51080;SDS011;37130;55.670;37.596;2023-07-20T03:34:28;0.30;;;0.30;;
51080;SDS011;37130;55.670;37.596;2023-07-20T03:36:55;0.40;;;0.40;;
51080;SDS011;37130;55.670;37.596;2023-07-20T03:39:23;0.40;;;0.40;;
51080;SDS011;37130;55.670;37.596;2023-07-20T03:41:51;0.40;;;0.40;;
51080;SDS011;37130;55.670;37.596;2023-07-20T03:44:19;0.50;;;0.50;;
51080;SDS011;37130;55.670;37.596;2023-07-20T03:46:47;0.63;;;0.63;;
51080;SDS011;37130;55.670;37.596;2023-07-20T03:49:14;0.70;;;0.70;;
51080;SDS011;37130;55.670;37.596;2023-07-20T03:51:42;0.70;;;0.70;;
51080;SDS011;37130;55.670;37.596;2023-07-20T03:54:10;0.70;;;0.70;;
51080;SDS011;37130;55.670;37.596;2023-07-20T03:56:37;0.80;;;0.80;;
51080;SDS011;37130;55.670;37.596;2023-07-20T03:59:05;0.82;;;0.82;;
51080;SDS011;37130;55.670;37.596;2023-07-20T04:01:32;0.70;;;0.70;;
51080;SDS011;37130;55.670;37.596;2023-07-20T04:04:06;0.70;;;0.70;;
51080;SDS011;37130;55.670;37.596;2023-07-20T04:06:35;0.50;;;0.50;;
51080;SDS011;37130;55.670;37.596;2023-07-20T04:09:03;0.47;;;0.47;;
51080;SDS011;37130;55.670;37.596;2023-07-20T04:11:32;0.20;;;0.20;;
51080;SDS011;37130;55.670;37.596;2023-07-20T04:13:59;0.20;;;0.20;;
51080;SDS011;37130;55.670;37.596;2023-07-20T04:16:26;0.10;;;0.10;;
51080;SDS011;37130;55.670;37.596;2023-07-20T04:18:55;0.10;;;0.10;;
51080;SDS011;37130;55.670;37.596;2023-07-20T04:21:27;0.10;;;0.10;;
51080;SDS011;37130;55.670;37.596;2023-07-20T04:23:55;0.10;;;0.10;;
51080;SDS011;37130;55.670;37.596;2023-07-20T04:26:23;0.08;;;0.08;;
51080;SDS011;37130;55.670;37.596;2023-07-20T04:28:51;0.20;;;0.20;;
51080;SDS011;37130;55.670;37.596;2023-07-20T04:31:32;0.10;;;0.10;;
51080;SDS011;37130;55.670;37.596;2023-07-20T04:34:02;0.20;;;0.20;;
51080;SDS011;37130;55.670;37.596;2023-07-20T04:36:32;0.30;;;0.30;;
51080;SDS011;37130;55.670;37.596;2023-07-20T04:39:00;0.30;;;0.30;;
51080;SDS011;37130;55.670;37.596;2023-07-20T04:41:34;0.20;;;0.20;;
51080;SDS011;37130;55.670;37.596;2023-07-20T04:44:01;0.30;;;0.30;;
51080;SDS011;37130;55.670;37.596;2023-07-20T04:46:30;0.30;;;0.30;;
51080;SDS011;37130;55.670;37.596;2023-07-20T04:49:01;0.20;;;0.20;;
51080;SDS011;37130;55.670;37.596;2023-07-20T04:51:32;0.40;;;0.40;;
51080;SDS011;37130;55.670;37.596;2023-07-20T04:53:59;0.40;;;0.40;;
51080;SDS011;37130;55.670;37.596;2023-07-20T04:56:31;0.50;;;0.50;;
51080;SDS011;37130;55.670;37.596;2023-07-20T04:59:02;0.63;;;0.63;;
51080;SDS011;37130;55.670;37.596;2023-07-20T05:01:30;0.70;;;0.70;;
51080;SDS011;37130;55.670;37.596;2023-07-20T05:03:57;1.20;;;1.20;;
51080;SDS011;37130;55.670;37.596;2023-07-20T05:06:25;1.60;;;1.60;;
51080;SDS011;37130;55.670;37.596;2023-07-20T05:08:52;1.75;;;1.75;;
51080;SDS011;37130;55.670;37.596;2023-07-20T05:11:20;1.85;;;1.85;;
51080;SDS011;37130;55.670;37.596;2023-07-20T05:13:48;2.35;;;2.25;;
51080;SDS011;37130;55.670;37.596;2023-07-20T05:16:16;2.83;;;2.72;;
51080;SDS011;37130;55.670;37.596;2023-07-20T05:18:44;3.13;;;3.03;;
51080;SDS011;37130;55.670;37.596;2023-07-20T05:21:13;3.45;;;3.35;;
51080;SDS011;37130;55.670;37.596;2023-07-20T05:23:41;3.95;;;3.85;;
51080;SDS011;37130;55.670;37.596;2023-07-20T05:26:08;4.80;;;4.60;;
51080;SDS011;37130;55.670;37.596;2023-07-20T05:28:36;4.97;;;4.78;;
51080;SDS011;37130;55.670;37.596;2023-07-20T05:31:03;4.97;;;4.78;;
51080;SDS011;37130;55.670;37.596;2023-07-20T05:33:31;5.43;;;5.22;;
51080;SDS011;37130;55.670;37.596;2023-07-20T05:35:58;6.30;;;6.10;;
51080;SDS011;37130;55.670;37.596;2023-07-20T05:38:26;6.80;;;6.60;;
51080;SDS011;37130;55.670;37.596;2023-07-20T05:40:58;7.05;;;6.75;;
51080;SDS011;37130;55.670;37.596;2023-07-20T05:43:28;7.18;;;6.88;;
51080;SDS011;37130;55.670;37.596;2023-07-20T05:45:56;7.30;;;7.00;;
51080;SDS011;37130;55.670;37.596;2023-07-20T05:48:24;7.70;;;7.40;;
51080;SDS011;37130;55.670;37.596;2023-07-20T05:50:51;7.68;;;7.38;;
51080;SDS011;37130;55.670;37.596;2023-07-20T05:53:19;7.68;;;7.38;;
51080;SDS011;37130;55.670;37.596;2023-07-20T05:55:51;8.30;;;8.00;;
51080;SDS011;37130;55.670;37.596;2023-07-20T05:58:20;8.38;;;8.07;;
51080;SDS011;37130;55.670;37.596;2023-07-20T06:00:48;8.77;;;8.48;;
51080;SDS011;37130;55.670;37.596;2023-07-20T06:03:16;8.73;;;8.43;;
51080;SDS011;37130;55.670;37.596;2023-07-20T06:05:45;9.93;;;9.52;;
51080;SDS011;37130;55.670;37.596;2023-07-20T06:08:13;10.13;;;9.73;;
51080;SDS011;37130;55.670;37.596;2023-07-20T06:10:41;10.55;;;10.15;;
51080;SDS011;37130;55.670;37.596;2023-07-20T06:13:11;10.80;;;10.40;;
51080;SDS011;37130;55.670;37.596;2023-07-20T06:15:39;10.88;;;10.48;;
51080;SDS011;37130;55.670;37.596;2023-07-20T06:18:08;11.02;;;10.63;;
51080;SDS011;37130;55.670;37.596;2023-07-20T06:20:36;11.52;;;11.13;;
51080;SDS011;37130;55.670;37.596;2023-07-20T06:23:03;11.30;;;10.90;;
51080;SDS011;37130;55.670;37.596;2023-07-20T06:25:31;12.18;;;11.68;;
51080;SDS011;37130;55.670;37.596;2023-07-20T06:27:58;12.55;;;12.05;;
51080;SDS011;37130;55.670;37.596;2023-07-20T06:30:26;12.10;;;11.60;;
51080;SDS011;37130;55.670;37.596;2023-07-20T06:32:53;13.35;;;12.85;;
51080;SDS011;37130;55.670;37.596;2023-07-20T06:35:21;13.15;;;12.65;;
51080;SDS011;37130;55.670;37.596;2023-07-20T06:37:49;13.65;;;13.15;;
51080;SDS011;37130;55.670;37.596;2023-07-20T06:40:16;14.45;;;13.85;;
51080;SDS011;37130;55.670;37.596;2023-07-20T06:42:47;14.98;;;14.38;;
51080;SDS011;37130;55.670;37.596;2023-07-20T06:45:17;16.67;;;15.98;;
51080;SDS011;37130;55.670;37.596;2023-07-20T06:47:45;17.23;;;16.52;;
51080;SDS011;37130;55.670;37.596;2023-07-20T06:50:13;16.70;;;16.00;;
51080;SDS011;37130;55.670;37.596;2023-07-20T06:52:44;16.98;;;16.27;;
51080;SDS011;37130;55.670;37.596;2023-07-20T06:55:13;17.05;;;16.35;;
51080;SDS011;37130;55.670;37.596;2023-07-20T06:57:41;16.10;;;15.50;;
51080;SDS011;37130;55.670;37.596;2023-07-20T07:00:14;16.25;;;15.65;;
51080;SDS011;37130;55.670;37.596;2023-07-20T07:02:42;15.88;;;15.27;;
51080;SDS011;37130;55.670;37.596;2023-07-20T07:05:12;16.23;;;15.63;;
51080;SDS011;37130;55.670;37.596;2023-07-20T07:07:45;16.38;;;15.73;;
51080;SDS011;37130;55.670;37.596;2023-07-20T07:10:13;18.20;;;17.50;;
51080;SDS011;37130;55.670;37.596;2023-07-20T07:12:40;19.33;;;18.52;;
51080;SDS011;37130;55.670;37.596;2023-07-20T07:15:08;19.90;;;19.10;;
51080;SDS011;37130;55.670;37.596;2023-07-20T07:17:37;19.52;;;18.73;;
51080;SDS011;37130;55.670;37.596;2023-07-20T07:20:05;19.92;;;19.13;;
51080;SDS011;37130;55.670;37.596;2023-07-20T07:22:37;21.65;;;20.75;;
51080;SDS011;37130;55.670;37.596;2023-07-20T07:25:05;20.90;;;20.10;;
51080;SDS011;37130;55.670;37.596;2023-07-20T07:27:34;19.75;;;18.95;;
51080;SDS011;37130;55.670;37.596;2023-07-20T07:30:02;20.95;;;20.15;;
51080;SDS011;37130;55.670;37.596;2023-07-20T07:32:31;19.77;;;18.98;;
51080;SDS011;37130;55.670;37.596;2023-07-20T07:34:59;19.27;;;18.48;;
51080;SDS011;37130;55.670;37.596;2023-07-20T07:37:31;18.10;;;17.40;;
51080;SDS011;37130;55.670;37.596;2023-07-20T07:40:06;19.30;;;18.50;;
51080;SDS011;37130;55.670;37.596;2023-07-20T07:42:35;18.20;;;17.50;;
51080;SDS011;37130;55.670;37.596;2023-07-20T07:45:03;16.10;;;15.50;;
51080;SDS011;37130;55.670;37.596;2023-07-20T07:47:31;14.70;;;14.10;;
51080;SDS011;37130;55.670;37.596;2023-07-20T07:49:58;15.82;;;15.23;;
51080;SDS011;37130;55.670;37.596;2023-07-20T07:52:26;16.45;;;15.77;;
51080;SDS011;37130;55.670;37.596;2023-07-20T07:54:54;15.38;;;14.77;;
51080;SDS011;37130;55.670;37.596;2023-07-20T07:57:22;15.38;;;14.77;;
51080;SDS011;37130;55.670;37.596;2023-07-20T07:59:50;16.23;;;15.63;;
51080;SDS011;37130;55.670;37.596;2023-07-20T08:02:18;15.18;;;14.57;;
51080;SDS011;37130;55.670;37.596;2023-07-20T08:04:46;15.38;;;14.77;;
51080;SDS011;37130;55.670;37.596;2023-07-20T08:07:14;16.85;;;16.15;;
51080;SDS011;37130;55.670;37.596;2023-07-20T08:09:42;18.15;;;17.45;;
51080;SDS011;37130;55.670;37.596;2023-07-20T08:12:09;19.27;;;18.48;;
51080;SDS011;37130;55.670;37.596;2023-07-20T08:14:37;20.38;;;19.58;;
51080;SDS011;37130;55.670;37.596;2023-07-20T08:17:04;18.52;;;17.83;;
51080;SDS011;37130;55.670;37.596;2023-07-20T08:19:32;17.40;;;16.70;;
51080;SDS011;37130;55.670;37.596;2023-07-20T08:22:00;11.68;;;11.23;;
51080;SDS011;37130;55.670;37.596;2023-07-20T08:24:27;9.93;;;9.52;;
51080;SDS011;37130;55.670;37.596;2023-07-20T08:26:55;7.40;;;7.10;;
51080;SDS011;37130;55.670;37.596;2023-07-20T08:29:23;4.75;;;4.55;;
51080;SDS011;37130;55.670;37.596;2023-07-20T08:31:51;3.38;;;3.28;;
51080;SDS011;37130;55.670;37.596;2023-07-20T08:34:18;3.00;;;2.90;;
51080;SDS011;37130;55.670;37.596;2023-07-20T08:36:57;2.55;;;2.45;;
51080;SDS011;37130;55.670;37.596;2023-07-20T08:39:26;2.05;;;2.05;;
51080;SDS011;37130;55.670;37.596;2023-07-20T08:41:53;1.70;;;1.70;;
51080;SDS011;37130;55.670;37.596;2023-07-20T08:44:22;1.33;;;1.33;;
51080;SDS011;37130;55.670;37.596;2023-07-20T08:46:52;1.00;;;1.00;;
51080;SDS011;37130;55.670;37.596;2023-07-20T08:49:22;0.70;;;0.70;;
51080;SDS011;37130;55.670;37.596;2023-07-20T08:51:49;0.60;;;0.60;;
51080;SDS011;37130;55.670;37.596;2023-07-20T08:54:19;0.50;;;0.50;;
51080;SDS011;37130;55.670;37.596;2023-07-20T08:56:46;0.40;;;0.40;;
51080;SDS011;37130;55.670;37.596;2023-07-20T08:59:15;0.32;;;0.32;;
51080;SDS011;37130;55.670;37.596;2023-07-20T09:01:44;0.20;;;0.20;;
51080;SDS011;37130;55.670;37.596;2023-07-20T09:04:13;0.20;;;0.20;;
51080;SDS011;37130;55.670;37.596;2023-07-20T09:06:40;0.20;;;0.20;;
51080;SDS011;37130;55.670;37.596;2023-07-20T09:09:11;0.10;;;0.10;;
51080;SDS011;37130;55.670;37.596;2023-07-20T09:11:40;0.10;;;0.10;;
51080;SDS011;37130;55.670;37.596;2023-07-20T09:14:08;0.10;;;0.10;;
51080;SDS011;37130;55.670;37.596;2023-07-20T09:16:50;0.10;;;0.10;;
51080;SDS011;37130;55.670;37.596;2023-07-20T09:19:19;0.10;;;0.10;;
51080;SDS011;37130;55.670;37.596;2023-07-20T09:21:48;0.00;;;0.00;;
51080;SDS011;37130;55.670;37.596;2023-07-20T09:24:19;0.10;;;0.10;;
51080;SDS011;37130;55.670;37.596;2023-07-20T09:26:49;0.00;;;0.00;;
51080;SDS011;37130;55.670;37.596;2023-07-20T09:29:18;0.00;;;0.00;;
51080;SDS011;37130;55.670;37.596;2023-07-20T09:31:59;0.00;;;0.00;;
51080;SDS011;37130;55.670;37.596;2023-07-20T09:34:30;0.00;;;0.00;;
51080;SDS011;37130;55.670;37.596;2023-07-20T09:37:01;0.00;;;0.00;;
51080;SDS011;37130;55.670;37.596;2023-07-20T09:39:30;0.00;;;0.00;;
51080;SDS011;37130;55.670;37.596;2023-07-20T09:42:01;0.00;;;0.00;;
51080;SDS011;37130;55.670;37.596;2023-07-20T09:44:32;0.00;;;0.00;;
51080;SDS011;37130;55.670;37.596;2023-07-20T09:47:03;0.00;;;0.00;;
51080;SDS011;37130;55.670;37.596;2023-07-20T09:49:31;0.00;;;0.00;;
51080;SDS011;37130;55.670;37.596;2023-07-20T09:52:19;0.00;;;0.00;;
51080;SDS011;37130;55.670;37.596;2023-07-20T09:54:50;0.00;;;0.00;;
51080;SDS011;37130;55.670;37.596;2023-07-20T09:57:18;0.00;;;0.00;;
51080;SDS011;37130;55.670;37.596;2023-07-20T09:59:47;0.00;;;0.00;;
51080;SDS011;37130;55.670;37.596;2023-07-20T10:02:20;0.00;;;0.00;;
51080;SDS011;37130;55.670;37.596;2023-07-20T10:04:51;0.00;;;0.00;;
51080;SDS011;37130;55.670;37.596;2023-07-20T10:07:22;0.00;;;0.00;;
51080;SDS011;37130;55.670;37.596;2023-07-20T10:09:53;0.00;;;0.00;;
51080;SDS011;37130;55.670;37.596;2023-07-20T10:12:22;0.00;;;0.00;;
51080;SDS011;37130;55.670;37.596;2023-07-20T10:15:40;0.00;;;0.00;;
51080;SDS011;37130;55.670;37.596;2023-07-20T10:20:41;0.00;;;0.00;;
51080;SDS011;37130;55.670;37.596;2023-07-20T10:23:12;0.00;;;0.00;;
51080;SDS011;37130;55.670;37.596;2023-07-20T10:25:40;0.00;;;0.00;;
51080;SDS011;37130;55.670;37.596;2023-07-20T10:28:10;0.00;;;0.00;;
51080;SDS011;37130;55.670;37.596;2023-07-20T10:30:38;0.00;;;0.00;;
51080;SDS011;37130;55.670;37.596;2023-07-20T10:33:06;0.00;;;0.00;;
51080;SDS011;37130;55.670;37.596;2023-07-20T10:35:58;0.00;;;0.00;;
51080;SDS011;37130;55.670;37.596;2023-07-20T10:41:24;0.00;;;0.00;;
51080;SDS011;37130;55.670;37.596;2023-07-20T10:44:00;0.00;;;0.00;;
51080;SDS011;37130;55.670;37.596;2023-07-20T10:46:34;0.00;;;0.00;;
51080;SDS011;37130;55.670;37.596;2023-07-20T10:49:08;0.00;;;0.00;;
51080;SDS011;37130;55.670;37.596;2023-07-20T10:56:48;0.00;;;0.00;;
51080;SDS011;37130;55.670;37.596;2023-07-20T10:59:20;0.00;;;0.00;;
51080;SDS011;37130;55.670;37.596;2023-07-20T11:02:08;0.00;;;0.00;;
51080;SDS011;37130;55.670;37.596;2023-07-20T11:07:07;0.00;;;0.00;;
51080;SDS011;37130;55.670;37.596;2023-07-20T11:09:36;0.00;;;0.00;;
51080;SDS011;37130;55.670;37.596;2023-07-20T11:12:24;0.00;;;0.00;;
51080;SDS011;37130;55.670;37.596;2023-07-20T11:14:55;0.00;;;0.00;;
51080;SDS011;37130;55.670;37.596;2023-07-20T11:17:30;0.00;;;0.00;;
51080;SDS011;37130;55.670;37.596;2023-07-20T11:19:59;0.00;;;0.00;;
51080;SDS011;37130;55.670;37.596;2023-07-20T11:22:34;0.00;;;0.00;;
51080;SDS011;37130;55.670;37.596;2023-07-20T11:25:02;0.00;;;0.00;;
51080;SDS011;37130;55.670;37.596;2023-07-20T11:27:30;0.00;;;0.00;;
51080;SDS011;37130;55.670;37.596;2023-07-20T11:29:58;0.00;;;0.00;;
51080;SDS011;37130;55.670;37.596;2023-07-20T11:32:29;0.00;;;0.00;;
51080;SDS011;37130;55.670;37.596;2023-07-20T11:34:57;0.00;;;0.00;;
51080;SDS011;37130;55.670;37.596;2023-07-20T11:37:24;0.00;;;0.00;;
51080;SDS011;37130;55.670;37.596;2023-07-20T11:39:56;0.00;;;0.00;;
51080;SDS011;37130;55.670;37.596;2023-07-20T11:42:24;0.00;;;0.00;;
51080;SDS011;37130;55.670;37.596;2023-07-20T11:44:55;0.00;;;0.00;;
51080;SDS011;37130;55.670;37.596;2023-07-20T11:47:24;0.00;;;0.00;;
51080;SDS011;37130;55.670;37.596;2023-07-20T11:49:56;0.00;;;0.00;;
51080;SDS011;37130;55.670;37.596;2023-07-20T11:52:31;0.00;;;0.00;;
51080;SDS011;37130;55.670;37.596;2023-07-20T11:55:00;0.00;;;0.00;;
51080;SDS011;37130;55.670;37.596;2023-07-20T11:57:30;0.00;;;0.00;;
51080;SDS011;37130;55.670;37.596;2023-07-20T12:00:01;0.00;;;0.00;;
51080;SDS011;37130;55.670;37.596;2023-07-20T12:02:38;0.00;;;0.00;;
51080;SDS011;37130;55.670;37.596;2023-07-20T12:05:06;0.00;;;0.00;;
51080;SDS011;37130;55.670;37.596;2023-07-20T12:07:36;0.00;;;0.00;;
51080;SDS011;37130;55.670;37.596;2023-07-20T12:10:08;0.00;;;0.00;;
51080;SDS011;37130;55.670;37.596;2023-07-20T12:12:39;0.00;;;0.00;;
51080;SDS011;37130;55.670;37.596;2023-07-20T12:15:19;0.00;;;0.00;;
51080;SDS011;37130;55.670;37.596;2023-07-20T12:17:54;0.00;;;0.00;;
51080;SDS011;37130;55.670;37.596;2023-07-20T12:20:24;0.00;;;0.00;;
51080;SDS011;37130;55.670;37.596;2023-07-20T12:23:00;0.00;;;0.00;;
51080;SDS011;37130;55.670;37.596;2023-07-20T12:25:39;0.00;;;0.00;;
51080;SDS011;37130;55.670;37.596;2023-07-20T12:28:08;0.00;;;0.00;;
51080;SDS011;37130;55.670;37.596;2023-07-20T12:30:41;0.00;;;0.00;;
51080;SDS011;37130;55.670;37.596;2023-07-20T12:33:12;0.00;;;0.00;;
51080;SDS011;37130;55.670;37.596;2023-07-20T12:35:43;0.00;;;0.00;;
51080;SDS011;37130;55.670;37.596;2023-07-20T12:38:11;0.00;;;0.00;;
51080;SDS011;37130;55.670;37.596;2023-07-20T12:40:38;0.00;;;0.00;;
51080;SDS011;37130;55.670;37.596;2023-07-20T12:43:07;0.00;;;0.00;;
51080;SDS011;37130;55.670;37.596;2023-07-20T12:45:35;0.00;;;0.00;;
51080;SDS011;37130;55.670;37.596;2023-07-20T12:48:03;0.00;;;0.00;;
51080;SDS011;37130;55.670;37.596;2023-07-20T12:50:31;0.00;;;0.00;;
51080;SDS011;37130;55.670;37.596;2023-07-20T12:52:58;0.00;;;0.00;;
51080;SDS011;37130;55.670;37.596;2023-07-20T12:55:26;0.00;;;0.00;;
51080;SDS011;37130;55.670;37.596;2023-07-20T12:57:54;0.00;;;0.00;;
51080;SDS011;37130;55.670;37.596;2023-07-20T13:00:22;0.00;;;0.00;;
51080;SDS011;37130;55.670;37.596;2023-07-20T13:02:50;0.00;;;0.00;;
51080;SDS011;37130;55.670;37.596;2023-07-20T13:05:35;0.00;;;0.00;;
51080;SDS011;37130;55.670;37.596;2023-07-20T13:08:06;0.00;;;0.00;;
51080;SDS011;37130;55.670;37.596;2023-07-20T13:10:37;0.00;;;0.00;;
51080;SDS011;37130;55.670;37.596;2023-07-20T13:13:08;0.00;;;0.00;;
51080;SDS011;37130;55.670;37.596;2023-07-20T13:15:43;0.00;;;0.00;;
51080;SDS011;37130;55.670;37.596;2023-07-20T13:18:11;0.00;;;0.00;;
51080;SDS011;37130;55.670;37.596;2023-07-20T13:20:39;0.00;;;0.00;;
51080;SDS011;37130;55.670;37.596;2023-07-20T13:23:07;0.00;;;0.00;;
51080;SDS011;37130;55.670;37.596;2023-07-20T13:25:35;0.00;;;0.00;;
51080;SDS011;37130;55.670;37.596;2023-07-20T13:28:03;0.00;;;0.00;;
51080;SDS011;37130;55.670;37.596;2023-07-20T13:30:32;0.00;;;0.00;;
51080;SDS011;37130;55.670;37.596;2023-07-20T13:33:00;0.00;;;0.00;;
51080;SDS011;37130;55.670;37.596;2023-07-20T13:35:32;0.00;;;0.00;;
51080;SDS011;37130;55.670;37.596;2023-07-20T13:38:03;0.00;;;0.00;;
51080;SDS011;37130;55.670;37.596;2023-07-20T13:40:58;0.00;;;0.00;;
51080;SDS011;37130;55.670;37.596;2023-07-20T13:43:26;0.00;;;0.00;;
51080;SDS011;37130;55.670;37.596;2023-07-20T13:45:54;0.00;;;0.00;;
51080;SDS011;37130;55.670;37.596;2023-07-20T13:48:24;0.00;;;0.00;;
51080;SDS011;37130;55.670;37.596;2023-07-20T13:50:54;0.00;;;0.00;;
51080;SDS011;37130;55.670;37.596;2023-07-20T13:53:26;0.00;;;0.00;;
51080;SDS011;37130;55.670;37.596;2023-07-20T13:55:57;0.00;;;0.00;;
51080;SDS011;37130;55.670;37.596;2023-07-20T13:58:28;0.00;;;0.00;;
51080;SDS011;37130;55.670;37.596;2023-07-20T14:00:58;0.00;;;0.00;;
51080;SDS011;37130;55.670;37.596;2023-07-20T14:03:26;0.00;;;0.00;;
51080;SDS011;37130;55.670;37.596;2023-07-20T14:05:54;0.00;;;0.00;;
51080;SDS011;37130;55.670;37.596;2023-07-20T14:08:24;0.00;;;0.00;;
51080;SDS011;37130;55.670;37.596;2023-07-20T14:10:52;0.00;;;0.00;;
51080;SDS011;37130;55.670;37.596;2023-07-20T14:13:23;0.00;;;0.00;;
51080;SDS011;37130;55.670;37.596;2023-07-20T14:16:07;0.00;;;0.00;;
51080;SDS011;37130;55.670;37.596;2023-07-20T14:18:36;0.00;;;0.00;;
51080;SDS011;37130;55.670;37.596;2023-07-20T14:21:04;0.00;;;0.00;;
51080;SDS011;37130;55.670;37.596;2023-07-20T14:23:35;0.00;;;0.00;;
51080;SDS011;37130;55.670;37.596;2023-07-20T14:26:03;0.00;;;0.00;;
51080;SDS011;37130;55.670;37.596;2023-07-20T14:28:36;0.00;;;0.00;;
51080;SDS011;37130;55.670;37.596;2023-07-20T14:31:05;0.00;;;0.00;;
51080;SDS011;37130;55.670;37.596;2023-07-20T14:33:33;0.00;;;0.00;;
51080;SDS011;37130;55.670;37.596;2023-07-20T14:36:02;0.00;;;0.00;;
51080;SDS011;37130;55.670;37.596;2023-07-20T14:38:34;0.00;;;0.00;;
51080;SDS011;37130;55.670;37.596;2023-07-20T14:41:02;0.00;;;0.00;;
51080;SDS011;37130;55.670;37.596;2023-07-20T14:43:31;0.00;;;0.00;;
51080;SDS011;37130;55.670;37.596;2023-07-20T14:46:00;0.00;;;0.00;;
51080;SDS011;37130;55.670;37.596;2023-07-20T14:48:27;0.00;;;0.00;;
51080;SDS011;37130;55.670;37.596;2023-07-20T14:50:55;0.00;;;0.00;;
51080;SDS011;37130;55.670;37.596;2023-07-20T14:53:31;0.00;;;0.00;;
51080;SDS011;37130;55.670;37.596;2023-07-20T14:56:02;0.00;;;0.00;;
51080;SDS011;37130;55.670;37.596;2023-07-20T14:58:31;0.00;;;0.00;;
51080;SDS011;37130;55.670;37.596;2023-07-20T15:01:02;0.00;;;0.00;;
51080;SDS011;37130;55.670;37.596;2023-07-20T15:03:31;0.00;;;0.00;;
51080;SDS011;37130;55.670;37.596;2023-07-20T15:05:59;0.00;;;0.00;;
51080;SDS011;37130;55.670;37.596;2023-07-20T15:08:28;0.00;;;0.00;;
51080;SDS011;37130;55.670;37.596;2023-07-20T15:10:55;0.00;;;0.00;;
51080;SDS011;37130;55.670;37.596;2023-07-20T15:13:24;0.00;;;0.00;;